sensor_id;sensor_type;location;lat;lon;timestamp;pressure;altitude;pressure_sealevel;temperature;humidity
74327;BME280;62745;51.060;13.786;2023-02-25T00:01:42;98417.19;;;2.50;98.73
74327;BME280;62745;51.060;13.786;2023-02-25T00:04:08;98420.84;;;2.49;99.10
74327;BME280;62745;51.060;13.786;2023-02-25T00:06:36;98403.44;;;2.33;99.33
74327;BME280;62745;51.060;13.786;2023-02-25T00:09:02;98417.41;;;2.33;99.19
74327;BME280;62745;51.060;13.786;2023-02-25T00:11:27;98414.97;;;2.32;100.00
74327;BME280;62745;51.060;13.786;2023-02-25T00:13:54;98425.78;;;2.37;99.94
74327;BME280;62745;51.060;13.786;2023-02-25T00:16:20;98406.63;;;2.28;100.00
74327;BME280;62745;51.060;13.786;2023-02-25T00:18:46;98410.19;;;2.21;100.00
74327;BME280;62745;51.060;13.786;2023-02-25T00:21:13;98419.53;;;2.38;100.00
74327;BME280;62745;51.060;13.786;2023-02-25T00:23:40;98412.72;;;2.29;99.75
74327;BME280;62745;51.060;13.786;2023-02-25T00:26:06;98414.34;;;2.30;100.00
74327;BME280;62745;51.060;13.786;2023-02-25T00:28:34;98406.16;;;2.39;100.00
74327;BME280;62745;51.060;13.786;2023-02-25T00:31:09;98418.41;;;2.32;98.88
74327;BME280;62745;51.060;13.786;2023-02-25T00:33:35;98421.53;;;2.36;100.00
74327;BME280;62745;51.060;13.786;2023-02-25T00:36:05;98403.09;;;2.36;99.75
74327;BME280;62745;51.060;13.786;2023-02-25T00:38:30;98405.25;;;2.32;98.24
74327;BME280;62745;51.060;13.786;2023-02-25T00:40:55;98402.63;;;2.32;99.05
74327;BME280;62745;51.060;13.786;2023-02-25T00:43:21;98398.34;;;2.31;98.96
74327;BME280;62745;51.060;13.786;2023-02-25T00:45:46;98397.34;;;2.32;98.31
74327;BME280;62745;51.060;13.786;2023-02-25T00:48:11;98408.34;;;2.36;97.63
74327;BME280;62745;51.060;13.786;2023-02-25T00:50:36;98392.69;;;2.34;98.57
74327;BME280;62745;51.060;13.786;2023-02-25T00:53:03;98405.16;;;2.40;97.51
74327;BME280;62745;51.060;13.786;2023-02-25T00:55:28;98379.66;;;2.26;96.88
74327;BME280;62745;51.060;13.786;2023-02-25T00:57:59;98394.25;;;2.44;97.16
74327;BME280;62745;51.060;13.786;2023-02-25T01:00:25;98395.31;;;2.49;97.05
74327;BME280;62745;51.060;13.786;2023-02-25T01:02:50;98399.94;;;2.47;97.00
74327;BME280;62745;51.060;13.786;2023-02-25T01:05:16;98390.66;;;2.51;96.22
74327;BME280;62745;51.060;13.786;2023-02-25T01:07:41;98394.63;;;2.62;96.62
74327;BME280;62745;51.060;13.786;2023-02-25T01:10:07;98396.91;;;2.65;96.18
74327;BME280;62745;51.060;13.786;2023-02-25T01:12:34;98386.09;;;2.60;95.86
74327;BME280;62745;51.060;13.786;2023-02-25T01:15:01;98374.94;;;2.58;95.84
74327;BME280;62745;51.060;13.786;2023-02-25T01:17:26;98390.91;;;2.71;95.40
74327;BME280;62745;51.060;13.786;2023-02-25T01:19:51;98388.50;;;2.76;94.67
74327;BME280;62745;51.060;13.786;2023-02-25T01:22:17;98383.66;;;2.80;94.65
74327;BME280;62745;51.060;13.786;2023-02-25T01:24:42;98381.03;;;2.80;94.51
74327;BME280;62745;51.060;13.786;2023-02-25T01:27:07;98379.19;;;2.80;94.59
74327;BME280;62745;51.060;13.786;2023-02-25T01:29:35;98372.91;;;2.81;94.76
74327;BME280;62745;51.060;13.786;2023-02-25T01:32:06;98372.19;;;2.87;93.13
74327;BME280;62745;51.060;13.786;2023-02-25T01:34:32;98360.63;;;2.88;93.78
74327;BME280;62745;51.060;13.786;2023-02-25T01:36:57;98361.88;;;2.92;92.61
74327;BME280;62745;51.060;13.786;2023-02-25T01:39:24;98354.34;;;2.89;92.81
74327;BME280;62745;51.060;13.786;2023-02-25T01:41:51;98362.94;;;2.98;91.62
74327;BME280;62745;51.060;13.786;2023-02-25T01:44:20;98376.25;;;3.11;91.63
74327;BME280;62745;51.060;13.786;2023-02-25T01:46:47;98358.28;;;3.00;93.06
74327;BME280;62745;51.060;13.786;2023-02-25T01:49:36;98370.09;;;3.04;93.25
74327;BME280;62745;51.060;13.786;2023-02-25T01:52:15;98347.00;;;2.85;92.95
74327;BME280;62745;51.060;13.786;2023-02-25T01:54:42;98357.19;;;2.88;93.61
74327;BME280;62745;51.060;13.786;2023-02-25T01:57:10;98348.75;;;2.78;93.72
74327;BME280;62745;51.060;13.786;2023-02-25T01:59:37;98351.34;;;2.71;94.49
74327;BME280;62745;51.060;13.786;2023-02-25T02:02:03;98371.00;;;2.90;95.35
74327;BME280;62745;51.060;13.786;2023-02-25T02:04:29;98368.16;;;2.91;93.49
74327;BME280;62745;51.060;13.786;2023-02-25T02:06:56;98358.34;;;2.85;93.45
74327;BME280;62745;51.060;13.786;2023-02-25T02:09:24;98362.69;;;2.93;93.39
74327;BME280;62745;51.060;13.786;2023-02-25T02:11:50;98358.19;;;2.87;92.96
74327;BME280;62745;51.060;13.786;2023-02-25T02:14:19;98383.41;;;2.96;92.98
74327;BME280;62745;51.060;13.786;2023-02-25T02:22:28;98359.34;;;3.06;90.78
74327;BME280;62745;51.060;13.786;2023-02-25T02:25:18;98358.41;;;3.13;90.24
74327;BME280;62745;51.060;13.786;2023-02-25T02:27:59;98355.75;;;3.13;89.50
74327;BME280;62745;51.060;13.786;2023-02-25T02:30:35;98360.03;;;3.14;88.83
74327;BME280;62745;51.060;13.786;2023-02-25T02:33:21;98355.13;;;3.11;90.15
74327;BME280;62745;51.060;13.786;2023-02-25T02:36:00;98359.41;;;3.12;90.26
74327;BME280;62745;51.060;13.786;2023-02-25T02:38:48;98351.69;;;3.11;89.93
74327;BME280;62745;51.060;13.786;2023-02-25T02:41:34;98359.16;;;3.07;90.17
74327;BME280;62745;51.060;13.786;2023-02-25T02:44:09;98340.09;;;3.05;89.73
74327;BME280;62745;51.060;13.786;2023-02-25T02:46:50;98349.34;;;3.01;90.49
74327;BME280;62745;51.060;13.786;2023-02-25T02:49:23;98354.00;;;2.99;90.92
74327;BME280;62745;51.060;13.786;2023-02-25T02:51:59;98347.72;;;3.00;91.47
74327;BME280;62745;51.060;13.786;2023-02-25T02:54:35;98343.66;;;2.97;91.88
74327;BME280;62745;51.060;13.786;2023-02-25T02:57:03;98339.88;;;2.85;92.37
74327;BME280;62745;51.060;13.786;2023-02-25T02:59:37;98346.16;;;2.84;92.82
74327;BME280;62745;51.060;13.786;2023-02-25T03:02:16;98344.13;;;2.80;92.04
74327;BME280;62745;51.060;13.786;2023-02-25T03:04:44;98354.03;;;2.78;92.33
74327;BME280;62745;51.060;13.786;2023-02-25T03:07:12;98341.84;;;2.77;93.51
74327;BME280;62745;51.060;13.786;2023-02-25T03:09:57;98339.84;;;2.79;91.81
74327;BME280;62745;51.060;13.786;2023-02-25T03:12:23;98348.38;;;2.81;93.11
74327;BME280;62745;51.060;13.786;2023-02-25T03:14:48;98344.88;;;2.74;91.87
74327;BME280;62745;51.060;13.786;2023-02-25T03:17:21;98354.84;;;2.78;92.93
74327;BME280;62745;51.060;13.786;2023-02-25T03:23:14;98331.19;;;2.63;93.69
74327;BME280;62745;51.060;13.786;2023-02-25T03:25:44;98349.53;;;2.71;93.83
74327;BME280;62745;51.060;13.786;2023-02-25T03:30:55;98353.97;;;2.71;93.12
74327;BME280;62745;51.060;13.786;2023-02-25T03:33:33;98374.69;;;2.74;92.33
74327;BME280;62745;51.060;13.786;2023-02-25T03:36:04;98353.97;;;2.71;91.56
74327;BME280;62745;51.060;13.786;2023-02-25T03:38:32;98349.53;;;2.71;91.52
74327;BME280;62745;51.060;13.786;2023-02-25T03:41:02;98349.16;;;2.75;92.84
74327;BME280;62745;51.060;13.786;2023-02-25T03:46:37;98346.81;;;2.65;92.51
74327;BME280;62745;51.060;13.786;2023-02-25T03:49:15;98368.91;;;2.64;93.30
74327;BME280;62745;51.060;13.786;2023-02-25T03:51:44;98364.06;;;2.67;92.97
74327;BME280;62745;51.060;13.786;2023-02-25T03:54:12;98366.69;;;2.67;93.44
74327;BME280;62745;51.060;13.786;2023-02-25T03:56:47;98370.72;;;2.63;93.56
74327;BME280;62745;51.060;13.786;2023-02-25T03:59:13;98366.78;;;2.53;94.67
74327;BME280;62745;51.060;13.786;2023-02-25T04:01:43;98363.44;;;2.44;95.34
74327;BME280;62745;51.060;13.786;2023-02-25T04:04:13;98367.88;;;2.44;95.79
74327;BME280;62745;51.060;13.786;2023-02-25T04:06:38;98387.78;;;2.46;96.55
74327;BME280;62745;51.060;13.786;2023-02-25T04:09:04;98371.91;;;2.39;96.34
74327;BME280;62745;51.060;13.786;2023-02-25T04:11:30;98388.53;;;2.40;97.88
74327;BME280;62745;51.060;13.786;2023-02-25T04:13:55;98385.75;;;2.27;97.00
74327;BME280;62745;51.060;13.786;2023-02-25T04:16:20;98377.41;;;2.23;97.80
74327;BME280;62745;51.060;13.786;2023-02-25T04:18:46;98388.38;;;2.27;99.51
74327;BME280;62745;51.060;13.786;2023-02-25T04:21:31;98379.41;;;2.21;99.32
74327;BME280;62745;51.060;13.786;2023-02-25T04:23:57;98391.38;;;2.24;99.58
74327;BME280;62745;51.060;13.786;2023-02-25T04:26:23;98387.94;;;2.23;100.00
74327;BME280;62745;51.060;13.786;2023-02-25T04:28:48;98407.63;;;2.27;100.00
74327;BME280;62745;51.060;13.786;2023-02-25T04:31:14;98409.72;;;2.17;100.00
74327;BME280;62745;51.060;13.786;2023-02-25T04:33:39;98416.09;;;2.08;100.00
74327;BME280;62745;51.060;13.786;2023-02-25T04:36:05;98408.13;;;1.87;100.00
74327;BME280;62745;51.060;13.786;2023-02-25T04:38:30;98421.38;;;1.78;100.00
74327;BME280;62745;51.060;13.786;2023-02-25T04:40:55;98409.31;;;1.69;100.00
74327;BME280;62745;51.060;13.786;2023-02-25T04:43:20;98435.78;;;1.68;100.00
74327;BME280;62745;51.060;13.786;2023-02-25T04:45:46;98425.25;;;1.68;100.00
74327;BME280;62745;51.060;13.786;2023-02-25T04:48:11;98429.53;;;1.69;100.00
74327;BME280;62745;51.060;13.786;2023-02-25T04:50:36;98436.72;;;1.75;100.00
74327;BME280;62745;51.060;13.786;2023-02-25T04:53:01;98431.19;;;1.70;100.00
74327;BME280;62745;51.060;13.786;2023-02-25T04:55:27;98432.50;;;1.66;100.00
74327;BME280;62745;51.060;13.786;2023-02-25T04:57:52;98433.06;;;1.61;100.00
74327;BME280;62745;51.060;13.786;2023-02-25T05:00:20;98439.22;;;1.54;100.00
74327;BME280;62745;51.060;13.786;2023-02-25T05:02:48;98438.75;;;1.50;100.00
74327;BME280;62745;51.060;13.786;2023-02-25T05:05:14;98449.44;;;1.48;100.00
74327;BME280;62745;51.060;13.786;2023-02-25T05:07:40;98444.38;;;1.47;100.00
74327;BME280;62745;51.060;13.786;2023-02-25T05:10:07;98443.47;;;1.40;100.00
74327;BME280;62745;51.060;13.786;2023-02-25T05:12:33;98414.22;;;1.20;100.00
74327;BME280;62745;51.060;13.786;2023-02-25T05:14:59;98438.44;;;1.30;100.00
74327;BME280;62745;51.060;13.786;2023-02-25T05:17:24;98438.34;;;1.24;100.00
74327;BME280;62745;51.060;13.786;2023-02-25T05:19:49;98442.06;;;1.29;100.00
74327;BME280;62745;51.060;13.786;2023-02-25T05:22:15;98451.50;;;1.24;100.00
74327;BME280;62745;51.060;13.786;2023-02-25T05:24:40;98447.59;;;1.19;100.00
74327;BME280;62745;51.060;13.786;2023-02-25T05:27:05;98442.97;;;1.22;100.00
74327;BME280;62745;51.060;13.786;2023-02-25T05:29:30;98452.53;;;1.14;100.00
74327;BME280;62745;51.060;13.786;2023-02-25T05:31:56;98448.44;;;1.12;100.00
74327;BME280;62745;51.060;13.786;2023-02-25T05:34:21;98464.69;;;1.15;100.00
74327;BME280;62745;51.060;13.786;2023-02-25T05:36:47;98456.69;;;1.09;100.00
74327;BME280;62745;51.060;13.786;2023-02-25T05:39:12;98458.50;;;1.08;100.00
74327;BME280;62745;51.060;13.786;2023-02-25T05:41:38;98474.50;;;0.99;100.00
74327;BME280;62745;51.060;13.786;2023-02-25T05:44:04;98475.28;;;1.07;100.00
74327;BME280;62745;51.060;13.786;2023-02-25T05:46:29;98468.09;;;1.01;100.00
74327;BME280;62745;51.060;13.786;2023-02-25T05:48:55;98461.72;;;0.96;100.00
74327;BME280;62745;51.060;13.786;2023-02-25T05:51:21;98483.63;;;1.11;100.00
74327;BME280;62745;51.060;13.786;2023-02-25T05:53:48;98456.41;;;1.04;100.00
74327;BME280;62745;51.060;13.786;2023-02-25T05:56:16;98481.19;;;1.09;100.00
74327;BME280;62745;51.060;13.786;2023-02-25T05:58:42;98461.34;;;0.99;100.00
74327;BME280;62745;51.060;13.786;2023-02-25T06:01:17;98461.25;;;0.92;100.00
74327;BME280;62745;51.060;13.786;2023-02-25T06:03:46;98473.22;;;0.95;100.00
74327;BME280;62745;51.060;13.786;2023-02-25T06:06:18;98468.22;;;0.85;100.00
74327;BME280;62745;51.060;13.786;2023-02-25T06:08:47;98455.28;;;0.75;100.00
74327;BME280;62745;51.060;13.786;2023-02-25T06:11:17;98477.72;;;0.86;100.00
74327;BME280;62745;51.060;13.786;2023-02-25T06:13:42;98479.66;;;0.92;100.00
74327;BME280;62745;51.060;13.786;2023-02-25T06:16:08;98489.16;;;0.93;100.00
74327;BME280;62745;51.060;13.786;2023-02-25T06:18:33;98518.34;;;1.06;100.00
74327;BME280;62745;51.060;13.786;2023-02-25T06:21:03;98537.38;;;1.08;100.00
74327;BME280;62745;51.060;13.786;2023-02-25T06:23:30;98518.53;;;1.05;100.00
74327;BME280;62745;51.060;13.786;2023-02-25T06:25:57;98516.88;;;1.04;100.00
74327;BME280;62745;51.060;13.786;2023-02-25T06:28:22;98516.34;;;1.08;100.00
74327;BME280;62745;51.060;13.786;2023-02-25T06:30:49;98535.69;;;1.15;100.00
74327;BME280;62745;51.060;13.786;2023-02-25T06:33:14;98539.81;;;1.18;100.00
74327;BME280;62745;51.060;13.786;2023-02-25T06:35:39;98533.13;;;1.07;100.00
74327;BME280;62745;51.060;13.786;2023-02-25T06:38:05;98529.22;;;1.03;100.00
74327;BME280;62745;51.060;13.786;2023-02-25T06:40:30;98538.09;;;1.02;100.00
74327;BME280;62745;51.060;13.786;2023-02-25T06:42:58;98529.38;;;1.02;100.00
74327;BME280;62745;51.060;13.786;2023-02-25T06:45:23;98568.03;;;1.24;100.00
74327;BME280;62745;51.060;13.786;2023-02-25T06:47:49;98558.53;;;1.15;100.00
74327;BME280;62745;51.060;13.786;2023-02-25T06:50:14;98569.03;;;1.23;100.00
74327;BME280;62745;51.060;13.786;2023-02-25T06:52:39;98561.13;;;1.23;100.00
74327;BME280;62745;51.060;13.786;2023-02-25T06:55:05;98581.94;;;1.33;100.00
74327;BME280;62745;51.060;13.786;2023-02-25T06:57:32;98564.59;;;1.24;100.00
74327;BME280;62745;51.060;13.786;2023-02-25T06:59:57;98554.53;;;1.27;100.00
74327;BME280;62745;51.060;13.786;2023-02-25T07:02:22;98591.44;;;1.42;100.00
74327;BME280;62745;51.060;13.786;2023-02-25T07:04:48;98579.31;;;1.33;100.00
74327;BME280;62745;51.060;13.786;2023-02-25T07:07:13;98586.16;;;1.42;100.00
74327;BME280;62745;51.060;13.786;2023-02-25T07:09:38;98575.34;;;1.37;100.00
74327;BME280;62745;51.060;13.786;2023-02-25T07:12:03;98581.72;;;1.42;100.00
74327;BME280;62745;51.060;13.786;2023-02-25T07:14:35;98576.34;;;1.36;100.00
74327;BME280;62745;51.060;13.786;2023-02-25T07:17:26;98595.16;;;1.47;100.00
74327;BME280;62745;51.060;13.786;2023-02-25T07:19:51;98585.56;;;1.32;100.00
74327;BME280;62745;51.060;13.786;2023-02-25T07:22:20;98565.13;;;1.19;100.00
74327;BME280;62745;51.060;13.786;2023-02-25T07:24:45;98586.19;;;1.34;100.00
74327;BME280;62745;51.060;13.786;2023-02-25T07:27:13;98594.06;;;1.42;100.00
74327;BME280;62745;51.060;13.786;2023-02-25T07:29:39;98580.78;;;2.63;100.00
74327;BME280;62745;51.060;13.786;2023-02-25T07:32:05;98562.97;;;3.16;100.00
74327;BME280;62745;51.060;13.786;2023-02-25T07:34:33;98593.31;;;3.05;97.46
74327;BME280;62745;51.060;13.786;2023-02-25T07:37:25;98571.63;;;2.74;96.05
74327;BME280;62745;51.060;13.786;2023-02-25T07:40:11;98593.03;;;2.85;96.58
74327;BME280;62745;51.060;13.786;2023-02-25T07:42:40;98614.13;;;3.00;96.06
74327;BME280;62745;51.060;13.786;2023-02-25T07:45:07;98592.09;;;3.22;96.31
74327;BME280;62745;51.060;13.786;2023-02-25T07:47:33;98608.28;;;3.77;96.74
74327;BME280;62745;51.060;13.786;2023-02-25T07:49:59;98600.28;;;3.49;93.89
74327;BME280;62745;51.060;13.786;2023-02-25T07:52:24;98607.19;;;3.14;92.83
74327;BME280;62745;51.060;13.786;2023-02-25T07:54:50;98610.16;;;3.83;96.19
74327;BME280;62745;51.060;13.786;2023-02-25T07:57:15;98592.19;;;3.14;94.65
74327;BME280;62745;51.060;13.786;2023-02-25T07:59:49;98630.31;;;3.12;93.37
74327;BME280;62745;51.060;13.786;2023-02-25T08:02:17;98606.72;;;3.25;94.03
74327;BME280;62745;51.060;13.786;2023-02-25T08:04:42;98613.78;;;2.88;95.25
74327;BME280;62745;51.060;13.786;2023-02-25T08:07:08;98624.16;;;3.05;94.74
74327;BME280;62745;51.060;13.786;2023-02-25T08:09:46;98629.09;;;3.29;94.28
74327;BME280;62745;51.060;13.786;2023-02-25T08:12:14;98643.31;;;2.98;95.54
74327;BME280;62745;51.060;13.786;2023-02-25T08:14:52;98642.25;;;2.78;94.93
74327;BME280;62745;51.060;13.786;2023-02-25T08:17:24;98635.72;;;3.40;97.02
74327;BME280;62745;51.060;13.786;2023-02-25T08:20:28;98637.78;;;2.93;96.05
74327;BME280;62745;51.060;13.786;2023-02-25T08:24:11;98638.06;;;2.98;96.26
74327;BME280;62745;51.060;13.786;2023-02-25T08:26:56;98645.16;;;2.83;96.93
74327;BME280;62745;51.060;13.786;2023-02-25T08:36:21;98619.03;;;2.44;96.73
74327;BME280;62745;51.060;13.786;2023-02-25T08:39:32;98619.88;;;2.59;95.88
74327;BME280;62745;51.060;13.786;2023-02-25T08:42:08;98614.78;;;2.58;97.22
74327;BME280;62745;51.060;13.786;2023-02-25T08:44:43;98660.25;;;2.89;96.85
74327;BME280;62745;51.060;13.786;2023-02-25T08:47:19;98625.88;;;2.53;94.82
74327;BME280;62745;51.060;13.786;2023-02-25T08:56:22;98641.00;;;3.40;94.45
74327;BME280;62745;51.060;13.786;2023-02-25T08:59:20;98639.81;;;3.42;94.58
74327;BME280;62745;51.060;13.786;2023-02-25T09:02:23;98634.06;;;3.03;92.64
74327;BME280;62745;51.060;13.786;2023-02-25T09:05:15;98647.91;;;3.41;93.54
74327;BME280;62745;51.060;13.786;2023-02-25T09:11:49;98639.88;;;2.98;92.84
74327;BME280;62745;51.060;13.786;2023-02-25T09:14:15;98671.03;;;3.39;92.67
74327;BME280;62745;51.060;13.786;2023-02-25T09:16:41;98666.72;;;3.52;93.16
74327;BME280;62745;51.060;13.786;2023-02-25T09:19:15;98653.50;;;3.16;92.00
74327;BME280;62745;51.060;13.786;2023-02-25T09:21:45;98666.34;;;3.19;91.29
74327;BME280;62745;51.060;13.786;2023-02-25T09:24:17;98683.97;;;2.75;91.91
74327;BME280;62745;51.060;13.786;2023-02-25T09:26:43;98704.09;;;3.05;92.51
74327;BME280;62745;51.060;13.786;2023-02-25T09:29:11;98706.38;;;3.08;93.55
74327;BME280;62745;51.060;13.786;2023-02-25T09:31:44;98676.88;;;2.60;94.04
74327;BME280;62745;51.060;13.786;2023-02-25T09:34:10;98715.00;;;1.89;96.17
74327;BME280;62745;51.060;13.786;2023-02-25T09:36:39;98725.78;;;1.71;98.69
74327;BME280;62745;51.060;13.786;2023-02-25T09:39:05;98736.25;;;1.48;98.87
74327;BME280;62745;51.060;13.786;2023-02-25T09:44:12;98735.19;;;1.27;100.00
74327;BME280;62745;51.060;13.786;2023-02-25T09:46:46;98744.53;;;1.37;100.00
74327;BME280;62745;51.060;13.786;2023-02-25T09:49:16;98745.50;;;1.44;100.00
74327;BME280;62745;51.060;13.786;2023-02-25T09:51:46;98749.34;;;1.26;100.00
74327;BME280;62745;51.060;13.786;2023-02-25T09:54:31;98756.41;;;1.25;100.00
74327;BME280;62745;51.060;13.786;2023-02-25T09:57:00;98771.03;;;1.28;100.00
74327;BME280;62745;51.060;13.786;2023-02-25T09:59:28;98761.19;;;1.22;100.00
74327;BME280;62745;51.060;13.786;2023-02-25T10:02:20;98767.25;;;1.30;100.00
74327;BME280;62745;51.060;13.786;2023-02-25T10:05:02;98773.69;;;1.19;100.00
74327;BME280;62745;51.060;13.786;2023-02-25T10:07:34;98761.25;;;1.05;100.00
74327;BME280;62745;51.060;13.786;2023-02-25T10:10:41;98780.09;;;1.25;100.00
74327;BME280;62745;51.060;13.786;2023-02-25T10:15:52;98786.63;;;1.29;100.00
74327;BME280;62745;51.060;13.786;2023-02-25T10:18:36;98797.38;;;1.19;100.00
74327;BME280;62745;51.060;13.786;2023-02-25T10:24:26;98807.09;;;0.95;100.00
74327;BME280;62745;51.060;13.786;2023-02-25T10:27:02;98803.00;;;0.92;100.00
74327;BME280;62745;51.060;13.786;2023-02-25T10:29:40;98809.22;;;0.83;100.00
74327;BME280;62745;51.060;13.786;2023-02-25T10:32:18;98811.38;;;0.87;100.00
74327;BME280;62745;51.060;13.786;2023-02-25T10:34:44;98813.16;;;0.95;100.00
74327;BME280;62745;51.060;13.786;2023-02-25T10:37:16;98817.28;;;0.89;100.00
74327;BME280;62745;51.060;13.786;2023-02-25T10:39:43;98823.06;;;0.85;100.00
74327;BME280;62745;51.060;13.786;2023-02-25T10:42:12;98822.22;;;0.84;100.00
74327;BME280;62745;51.060;13.786;2023-02-25T10:44:40;98815.00;;;0.78;100.00
74327;BME280;62745;51.060;13.786;2023-02-25T10:47:11;98829.63;;;0.89;100.00
74327;BME280;62745;51.060;13.786;2023-02-25T10:49:39;98829.63;;;0.73;100.00
74327;BME280;62745;51.060;13.786;2023-02-25T10:52:13;98834.22;;;0.71;100.00
74327;BME280;62745;51.060;13.786;2023-02-25T10:54:50;98836.19;;;0.69;100.00
74327;BME280;62745;51.060;13.786;2023-02-25T10:57:22;98827.63;;;0.91;100.00
74327;BME280;62745;51.060;13.786;2023-02-25T10:59:58;98849.31;;;0.77;100.00
74327;BME280;62745;51.060;13.786;2023-02-25T11:02:27;98846.69;;;0.77;100.00
74327;BME280;62745;51.060;13.786;2023-02-25T11:04:54;98844.72;;;0.79;100.00
74327;BME280;62745;51.060;13.786;2023-02-25T11:07:33;98850.97;;;0.78;100.00
74327;BME280;62745;51.060;13.786;2023-02-25T11:10:15;98849.00;;;0.88;100.00
74327;BME280;62745;51.060;13.786;2023-02-25T11:12:42;98856.72;;;0.98;100.00
74327;BME280;62745;51.060;13.786;2023-02-25T11:17:44;98861.66;;;0.93;100.00
74327;BME280;62745;51.060;13.786;2023-02-25T11:20:21;98860.31;;;1.13;100.00
74327;BME280;62745;51.060;13.786;2023-02-25T11:22:50;98857.34;;;1.16;100.00
74327;BME280;62745;51.060;13.786;2023-02-25T11:25:19;98861.31;;;1.20;100.00
74327;BME280;62745;51.060;13.786;2023-02-25T11:27:50;98858.47;;;1.30;100.00
74327;BME280;62745;51.060;13.786;2023-02-25T11:30:23;98861.44;;;1.43;100.00
74327;BME280;62745;51.060;13.786;2023-02-25T11:32:55;98858.31;;;1.39;100.00
74327;BME280;62745;51.060;13.786;2023-02-25T11:35:30;98862.28;;;1.27;100.00
74327;BME280;62745;51.060;13.786;2023-02-25T11:38:27;98858.69;;;1.20;100.00
74327;BME280;62745;51.060;13.786;2023-02-25T11:40:54;98857.84;;;1.28;100.00
74327;BME280;62745;51.060;13.786;2023-02-25T11:43:26;98860.81;;;1.25;100.00
74327;BME280;62745;51.060;13.786;2023-02-25T11:46:06;98852.41;;;1.29;100.00
74327;BME280;62745;51.060;13.786;2023-02-25T11:48:56;98867.19;;;1.38;100.00
74327;BME280;62745;51.060;13.786;2023-02-25T11:51:51;98865.72;;;1.36;100.00
74327;BME280;62745;51.060;13.786;2023-02-25T11:54:33;98870.16;;;1.35;100.00
74327;BME280;62745;51.060;13.786;2023-02-25T12:00:15;98874.91;;;1.32;100.00
74327;BME280;62745;51.060;13.786;2023-02-25T12:03:12;98880.84;;;1.34;100.00
74327;BME280;62745;51.060;13.786;2023-02-25T12:05:51;98872.16;;;1.25;100.00
74327;BME280;62745;51.060;13.786;2023-02-25T12:11:37;98889.88;;;1.31;100.00
74327;BME280;62745;51.060;13.786;2023-02-25T12:14:38;98897.09;;;1.45;100.00
74327;BME280;62745;51.060;13.786;2023-02-25T12:17:49;98894.19;;;1.24;100.00
74327;BME280;62745;51.060;13.786;2023-02-25T12:23:39;98897.31;;;1.03;100.00
74327;BME280;62745;51.060;13.786;2023-02-25T12:26:25;98898.28;;;1.35;100.00
74327;BME280;62745;51.060;13.786;2023-02-25T12:31:51;98907.81;;;1.36;100.00
74327;BME280;62745;51.060;13.786;2023-02-25T12:37:08;98910.75;;;1.49;100.00
74327;BME280;62745;51.060;13.786;2023-02-25T12:40:02;98911.59;;;1.41;100.00
74327;BME280;62745;51.060;13.786;2023-02-25T12:42:50;98914.88;;;1.52;100.00
74327;BME280;62745;51.060;13.786;2023-02-25T12:45:42;98922.56;;;1.61;100.00
74327;BME280;62745;51.060;13.786;2023-02-25T12:48:40;98914.03;;;1.59;100.00
74327;BME280;62745;51.060;13.786;2023-02-25T12:51:30;98919.44;;;1.49;100.00
74327;BME280;62745;51.060;13.786;2023-02-25T12:54:49;98930.16;;;1.56;100.00
74327;BME280;62745;51.060;13.786;2023-02-25T13:00:28;98920.78;;;1.54;100.00
74327;BME280;62745;51.060;13.786;2023-02-25T13:09:26;98930.91;;;1.81;100.00
74327;BME280;62745;51.060;13.786;2023-02-25T13:12:32;98931.34;;;2.01;100.00
74327;BME280;62745;51.060;13.786;2023-02-25T13:15:08;98935.53;;;1.87;100.00
74327;BME280;62745;51.060;13.786;2023-02-25T13:17:44;98950.84;;;1.67;100.00
74327;BME280;62745;51.060;13.786;2023-02-25T13:20:42;98951.72;;;1.43;100.00
74327;BME280;62745;51.060;13.786;2023-02-25T13:23:24;98957.28;;;1.32;100.00
74327;BME280;62745;51.060;13.786;2023-02-25T13:26:19;98959.25;;;1.14;100.00
74327;BME280;62745;51.060;13.786;2023-02-25T13:29:11;98956.97;;;1.27;100.00
74327;BME280;62745;51.060;13.786;2023-02-25T13:40:54;98970.19;;;0.60;100.00
74327;BME280;62745;51.060;13.786;2023-02-25T13:43:50;98969.59;;;0.91;100.00
74327;BME280;62745;51.060;13.786;2023-02-25T13:46:45;98970.13;;;1.03;100.00
74327;BME280;62745;51.060;13.786;2023-02-25T13:55:07;98965.50;;;1.62;99.34
74327;BME280;62745;51.060;13.786;2023-02-25T13:58:09;98979.47;;;1.78;100.00
74327;BME280;62745;51.060;13.786;2023-02-25T14:11:48;98995.72;;;1.98;99.75
74327;BME280;62745;51.060;13.786;2023-02-25T14:17:14;99000.72;;;1.69;100.00
74327;BME280;62745;51.060;13.786;2023-02-25T14:22:48;99013.66;;;1.95;100.00
74327;BME280;62745;51.060;13.786;2023-02-25T14:28:16;99013.50;;;1.80;99.42
74327;BME280;62745;51.060;13.786;2023-02-25T14:31:05;99014.84;;;1.43;99.59
74327;BME280;62745;51.060;13.786;2023-02-25T14:33:43;99032.59;;;0.58;100.00
74327;BME280;62745;51.060;13.786;2023-02-25T14:42:00;99044.25;;;0.64;100.00
74327;BME280;62745;51.060;13.786;2023-02-25T14:44:34;99052.53;;;0.77;100.00
74327;BME280;62745;51.060;13.786;2023-02-25T14:47:09;99058.50;;;0.96;100.00
74327;BME280;62745;51.060;13.786;2023-02-25T14:49:58;99052.50;;;0.69;100.00
74327;BME280;62745;51.060;13.786;2023-02-25T14:52:33;99062.59;;;0.90;100.00
74327;BME280;62745;51.060;13.786;2023-02-25T15:01:12;99063.69;;;1.38;100.00
74327;BME280;62745;51.060;13.786;2023-02-25T15:04:06;99064.31;;;1.24;98.82
74327;BME280;62745;51.060;13.786;2023-02-25T15:06:41;99065.94;;;1.16;99.48
74327;BME280;62745;51.060;13.786;2023-02-25T15:20:32;99079.22;;;0.99;98.88
74327;BME280;62745;51.060;13.786;2023-02-25T15:23:13;99081.56;;;1.10;99.83
74327;BME280;62745;51.060;13.786;2023-02-25T15:26:20;99084.13;;;0.85;98.77
74327;BME280;62745;51.060;13.786;2023-02-25T15:28:47;99086.09;;;0.92;98.13
74327;BME280;62745;51.060;13.786;2023-02-25T15:34:23;99099.84;;;0.77;99.98